This is the latest recevied weather packets stored in our database for station/object K6CED. If no packets are shown the sender has not sent any weather packets the latest 10 day(s).
| Time | Temp. | Humidity | Pressure | Rain* | Wind** | Luminosity | Snow |
|---|---|---|---|---|---|---|---|
| 1778261697 | 20° C | 75% | 1018.1 hPa | 0 mm | - | 790 W/m² | - |
| 1778261393 | 20.56° C | 73% | 1018.2 hPa | 0 mm | - | 781 W/m² | - |
| 1778261090 | 20.56° C | 73% | 1018.5 hPa | 0 mm | - | 771 W/m² | - |
| 1778260787 | 19.44° C | 76% | 1018.2 hPa | 0 mm | - | 764 W/m² | - |
| 1778260484 | 19.44° C | 76% | 1018.2 hPa | 0 mm | - | 751 W/m² | - |
| 1778260180 | 19.44° C | 77% | 1018.3 hPa | 0 mm | - | 735 W/m² | - |
| 1778259877 | 18.89° C | 78% | 1018.4 hPa | 0 mm | - | 721 W/m² | - |
| 1778259574 | 17.78° C | 82% | 1018.6 hPa | 0 mm | - | 704 W/m² | - |
| 1778259272 | 18.33° C | 80% | 1018.4 hPa | 0 mm | - | 689 W/m² | - |
| 1778258967 | 17.78° C | 82% | 1018.6 hPa | 0 mm | - | 659 W/m² | - |
| 1778258665 | 17.78° C | 82% | 1018.6 hPa | 0 mm | - | 518 W/m² | - |
| 1778258362 | 17.78° C | 82% | 1018.7 hPa | 0 mm | - | 644 W/m² | - |
| 1778258060 | 16.67° C | 87% | 1018.6 hPa | 0 mm | - | 652 W/m² | - |
| 1778257760 | 16.11° C | 87% | 1018.6 hPa | 0 mm | - | 328 W/m² | - |
| 1778257458 | 16.11° C | 87% | 1018.7 hPa | 0 mm | - | 359 W/m² | - |
| 1778257155 | 16.11° C | 88% | 1018.6 hPa | 0 mm | - | 305 W/m² | - |
| 1778256852 | 15.56° C | 89% | 1018.7 hPa | 0 mm | - | 268 W/m² | - |
| 1778256549 | 16.11° C | 88% | 1018.8 hPa | 0 mm | - | 275 W/m² | - |
| 1778256248 | 16.11° C | 89% | 1018.7 hPa | 0 mm | - | 241 W/m² | - |
| 1778255943 | 15.56° C | 91% | 1018.8 hPa | 0 mm | - | 222 W/m² | - |
| 1778255641 | 15° C | 91% | 1018.7 hPa | 0 mm | - | 227 W/m² | - |
| 1778255337 | 15° C | 92% | 1018.5 hPa | 0 mm | - | 201 W/m² | - |
| 1778255035 | 15° C | 93% | 1018.7 hPa | 0 mm | - | 191 W/m² | - |
| 1778254731 | 15° C | 93% | 1018.9 hPa | 0 mm | - | 168 W/m² | - |
| 1778254429 | 14.44° C | 94% | 1018.9 hPa | 0 mm | - | 152 W/m² | - |
* Rain latest hour (hover to see other rain measurements)
** Current wind speed in m/s (hover to see current wind gust speed)